Terminal Aerodrome Forecast
Issued by NWS

Home | Current Version | Previous Version | Graphics & Text | Print | Product List | Glossary On
Versions: 1 2 3 4 5 6 7 8 9 10 11 12 13 14 15 16 17 18 19 20
000
FTUS43 KGRB 181736
TAFMTW
TAF
KMTW 181736Z 1818/1918 17015G27KT P6SM BKN120 WS020/19050KT
     FM190100 18011G19KT P6SM BKN120 WS017/22045KT
     FM190800 20004KT P6SM BKN060 WS018/22045KT
     FM191100 13006KT 5SM BR BKN022 WS018/24035KT
     FM191500 08008KT P6SM -RA OVC012=

USA.gov is the U.S. government's official web portal to all federal, state and local government web resources and services.